createdAt,value
2022-12-15T00:00:02.083Z,13.95
2022-12-15T00:02:49.079Z,14.15
2022-12-15T00:05:34.748Z,14.48
2022-12-15T00:08:25.793Z,13.60
2022-12-15T00:11:11.136Z,13.48
2022-12-15T00:13:56.906Z,12.55
2022-12-15T00:16:42.342Z,13.20
2022-12-15T00:19:29.823Z,15.32
2022-12-15T00:22:15.462Z,14.43
2022-12-15T00:25:00.986Z,14.20
2022-12-15T00:27:46.950Z,14.40
2022-12-15T00:30:32.306Z,13.80
2022-12-15T00:33:17.637Z,13.85
2022-12-15T00:36:04.370Z,13.93
2022-12-15T00:38:47.664Z,13.90
2022-12-15T00:41:17.683Z,13.85
2022-12-15T00:43:45.651Z,14.65
2022-12-15T00:46:31.858Z,13.77
2022-12-15T00:49:00.271Z,13.73
2022-12-15T00:51:47.165Z,14.23
2022-12-15T00:54:32.822Z,13.20
2022-12-15T00:57:17.986Z,13.25
2022-12-15T01:00:03.642Z,13.02
2022-12-15T01:02:49.452Z,13.10
2022-12-15T01:05:34.799Z,12.82
2022-12-15T01:08:21.756Z,12.82
2022-12-15T01:11:07.369Z,12.48
2022-12-15T01:13:52.951Z,14.68
2022-12-15T01:16:38.739Z,13.70
2022-12-15T01:19:26.917Z,13.02
2022-12-15T01:21:54.926Z,13.48
2022-12-15T01:24:24.534Z,14.23
2022-12-15T01:26:52.770Z,13.82
2022-12-15T01:29:20.768Z,13.48
2022-12-15T01:31:49.812Z,13.95
2022-12-15T01:34:20.305Z,13.38
2022-12-15T01:36:48.362Z,13.88
2022-12-15T01:39:16.741Z,13.23
2022-12-15T01:41:45.048Z,13.68
2022-12-15T01:44:21.714Z,13.52
2022-12-15T01:46:52.116Z,13.07
2022-12-15T01:49:26.279Z,13.48
2022-12-15T01:51:59.702Z,14.48
2022-12-15T01:54:31.813Z,15.90
2022-12-15T01:57:05.819Z,13.85
2022-12-15T01:59:38.638Z,13.80
2022-12-15T02:02:07.118Z,14.00
2022-12-15T02:04:37.857Z,13.93
2022-12-15T02:07:05.888Z,12.63
2022-12-15T02:09:33.968Z,14.88
2022-12-15T02:12:14.014Z,12.95
2022-12-15T02:14:53.416Z,12.00
2022-12-15T02:17:34.286Z,13.43
2022-12-15T02:20:30.233Z,12.93
2022-12-15T02:23:25.967Z,12.35
2022-12-15T02:26:09.050Z,11.23
2022-12-15T02:28:53.294Z,10.93
2022-12-15T02:31:42.613Z,12.45
2022-12-15T02:34:15.590Z,11.75
2022-12-15T02:36:48.788Z,12.32
2022-12-15T02:39:18.968Z,12.85
2022-12-15T02:41:49.027Z,12.95
2022-12-15T02:44:22.647Z,13.57
2022-12-15T02:49:36.681Z,11.38
2022-12-15T02:52:15.718Z,12.27
2022-12-15T02:54:59.520Z,12.48
2022-12-15T02:57:37.557Z,12.65
2022-12-15T03:00:09.806Z,12.15
2022-12-15T03:02:43.587Z,13.27
2022-12-15T03:05:13.824Z,11.40
2022-12-15T03:07:42.847Z,12.77
2022-12-15T03:10:13.315Z,11.93
2022-12-15T03:12:41.674Z,12.05
2022-12-15T03:15:10.192Z,12.13
2022-12-15T03:17:39.926Z,12.68
2022-12-15T03:20:09.242Z,12.48
2022-12-15T03:22:37.818Z,12.55
2022-12-15T03:25:06.578Z,13.27
2022-12-15T03:27:34.571Z,12.48
2022-12-15T03:30:02.589Z,12.43
2022-12-15T03:32:31.743Z,13.52
2022-12-15T03:35:01.841Z,12.13
2022-12-15T03:37:29.970Z,13.57
2022-12-15T03:39:58.254Z,12.13
2022-12-15T03:42:40.251Z,12.55
2022-12-15T03:45:08.955Z,12.13
2022-12-15T03:47:36.861Z,12.68
2022-12-15T03:50:07.290Z,13.00
2022-12-15T03:52:36.258Z,11.65
2022-12-15T03:55:05.200Z,12.35
2022-12-15T03:57:33.200Z,12.00
2022-12-15T04:00:01.519Z,12.07
2022-12-15T04:02:29.578Z,12.35
2022-12-15T04:04:57.606Z,12.20
2022-12-15T04:07:26.895Z,11.68
2022-12-15T04:09:54.817Z,12.32
2022-12-15T04:12:22.885Z,12.77
2022-12-15T04:14:50.853Z,11.98
2022-12-15T04:17:18.869Z,12.23
2022-12-15T04:20:04.414Z,12.13
2022-12-15T04:22:33.709Z,11.85
2022-12-15T04:25:19.240Z,12.95
2022-12-15T04:28:05.053Z,11.90
2022-12-15T04:30:50.947Z,11.75
2022-12-15T04:33:36.645Z,11.43
2022-12-15T04:36:23.182Z,12.13
2022-12-15T04:39:09.908Z,12.38
2022-12-15T04:41:55.585Z,13.32
2022-12-15T04:44:41.948Z,12.38
2022-12-15T04:47:27.360Z,12.43
2022-12-15T04:50:13.093Z,12.52
2022-12-15T04:52:58.791Z,11.90
2022-12-15T04:55:45.500Z,12.88
2022-12-15T04:58:31.142Z,12.65
2022-12-15T05:01:17.606Z,12.10
2022-12-15T05:04:03.006Z,12.18
2022-12-15T05:06:48.520Z,11.70
2022-12-15T05:09:33.667Z,11.88
2022-12-15T05:12:20.682Z,12.32
2022-12-15T05:15:06.256Z,11.82
2022-12-15T05:17:51.495Z,12.45
2022-12-15T05:20:37.083Z,13.27
2022-12-15T05:23:22.667Z,12.13
2022-12-15T05:26:08.472Z,11.60
2022-12-15T05:28:55.505Z,13.13
2022-12-15T05:31:41.014Z,12.63
2022-12-15T05:34:09.175Z,12.68
2022-12-15T05:36:37.153Z,12.70
2022-12-15T05:39:05.561Z,13.15
2022-12-15T05:41:33.594Z,12.55
2022-12-15T05:44:03.072Z,12.82
2022-12-15T05:46:31.136Z,13.45
2022-12-15T05:48:59.227Z,12.38
2022-12-15T05:51:27.241Z,12.93
2022-12-15T05:53:55.656Z,12.90
2022-12-15T05:56:23.670Z,13.30
2022-12-15T05:58:51.687Z,12.88
2022-12-15T06:01:21.208Z,13.25
2022-12-15T06:03:49.505Z,13.93
2022-12-15T06:06:17.634Z,12.05
2022-12-15T06:08:46.237Z,12.13
2022-12-15T06:11:20.626Z,12.98
2022-12-15T06:13:48.732Z,12.50
2022-12-15T06:16:18.409Z,13.32
2022-12-15T06:18:50.535Z,13.20
2022-12-15T06:21:21.854Z,13.50
2022-12-15T06:23:49.857Z,12.52
2022-12-15T06:26:21.681Z,13.65
2022-12-15T06:28:56.882Z,13.20
2022-12-15T06:31:26.915Z,13.32
2022-12-15T06:34:01.605Z,14.18
2022-12-15T06:36:31.079Z,12.95
2022-12-15T06:39:01.523Z,13.77
2022-12-15T06:41:31.065Z,18.13
2022-12-15T06:43:59.662Z,17.10
2022-12-15T06:46:30.019Z,15.32
2022-12-15T06:49:00.524Z,15.40
2022-12-15T06:51:29.324Z,15.32
2022-12-15T06:53:57.632Z,13.75
2022-12-15T06:56:33.036Z,14.15
2022-12-15T06:59:03.412Z,14.70
2022-12-15T07:01:32.422Z,13.93
2022-12-15T07:04:04.546Z,14.82
2022-12-15T07:06:36.762Z,14.65
2022-12-15T07:09:12.891Z,14.15
2022-12-15T07:11:41.774Z,15.75
2022-12-15T07:14:13.886Z,15.82
2022-12-15T07:16:42.029Z,15.77
2022-12-15T07:19:13.803Z,16.38
2022-12-15T07:21:42.527Z,13.77
2022-12-15T07:24:12.654Z,13.98
2022-12-15T07:26:40.801Z,15.20
2022-12-15T07:29:08.784Z,14.77
2022-12-15T07:31:36.992Z,14.95
2022-12-15T07:34:05.788Z,15.35
2022-12-15T07:36:35.105Z,15.23
2022-12-15T07:39:04.873Z,15.57
2022-12-15T07:41:33.567Z,14.90
2022-12-15T07:44:02.365Z,15.13
2022-12-15T07:46:30.881Z,16.45
2022-12-15T07:48:59.409Z,16.20
2022-12-15T07:51:27.812Z,15.23
2022-12-15T07:53:57.554Z,15.30
2022-12-15T07:56:25.691Z,15.50
2022-12-15T07:58:54.124Z,15.68
2022-12-15T08:01:22.610Z,17.35
2022-12-15T08:03:50.833Z,15.80
2022-12-15T08:06:19.076Z,17.20
2022-12-15T08:08:50.472Z,15.60
2022-12-15T08:11:22.532Z,15.70
2022-12-15T08:14:11.823Z,16.40
2022-12-15T08:16:39.113Z,17.45
2022-12-15T08:19:08.987Z,16.48
2022-12-15T08:21:37.100Z,16.52
2022-12-15T08:24:05.616Z,17.77
2022-12-15T08:26:35.291Z,17.15
2022-12-15T08:29:40.329Z,16.45
2022-12-15T08:31:53.296Z,16.23
2022-12-15T08:34:28.206Z,18.08
2022-12-15T08:36:56.836Z,17.40
2022-12-15T08:39:24.935Z,16.55
2022-12-15T08:41:54.272Z,16.52
2022-12-15T08:44:23.151Z,17.23
2022-12-15T08:46:51.251Z,15.60
2022-12-15T08:49:22.122Z,16.77
2022-12-15T08:51:51.398Z,18.15
2022-12-15T08:54:20.652Z,17.77
2022-12-15T08:56:49.363Z,18.42
2022-12-15T08:59:19.563Z,18.80
2022-12-15T09:01:47.981Z,18.95
2022-12-15T09:04:16.544Z,18.92
2022-12-15T09:06:45.097Z,19.13
2022-12-15T09:09:19.279Z,19.23
2022-12-15T09:11:47.287Z,19.85
2022-12-15T09:14:15.785Z,18.17
2022-12-15T09:16:45.528Z,18.92
2022-12-15T09:19:13.625Z,18.95
2022-12-15T09:21:45.088Z,19.75
2022-12-15T09:24:24.670Z,19.17
2022-12-15T09:29:25.687Z,17.02
2022-12-15T09:31:55.019Z,18.83
2022-12-15T09:34:22.967Z,19.40
2022-12-15T09:36:50.962Z,19.92
2022-12-15T09:39:19.769Z,18.88
2022-12-15T09:41:54.193Z,19.88
2022-12-15T09:44:23.867Z,20.98
2022-12-15T09:47:02.263Z,18.80
2022-12-15T09:49:44.288Z,18.33
2022-12-15T09:52:15.162Z,19.52
2022-12-15T09:54:45.009Z,20.50
2022-12-15T09:57:26.326Z,19.92
2022-12-15T10:00:14.506Z,20.55
2022-12-15T10:03:21.515Z,20.13
2022-12-15T10:06:16.166Z,20.20
2022-12-15T10:08:50.428Z,22.08
2022-12-15T10:11:25.480Z,21.45
2022-12-15T10:13:59.080Z,21.83
2022-12-15T10:16:33.461Z,22.20
2022-12-15T10:19:08.829Z,23.38
2022-12-15T10:21:38.499Z,22.42
2022-12-15T10:24:31.561Z,20.92
2022-12-15T10:27:19.254Z,21.52
2022-12-15T10:29:52.794Z,21.73
2022-12-15T10:34:49.678Z,20.92
2022-12-15T10:37:22.145Z,21.85
2022-12-15T10:39:51.668Z,22.88
2022-12-15T10:42:22.794Z,23.67
2022-12-15T10:44:52.612Z,22.58
2022-12-15T10:47:23.794Z,24.40
2022-12-15T10:49:55.516Z,26.15
2022-12-15T10:52:35.423Z,25.60
2022-12-15T10:55:23.694Z,24.40
2022-12-15T10:58:00.177Z,29.88
2022-12-15T11:00:33.029Z,24.55
2022-12-15T11:03:01.753Z,22.17
2022-12-15T11:05:30.212Z,28.25
2022-12-15T11:08:17.493Z,26.83
2022-12-15T11:11:09.898Z,26.25
2022-12-15T11:13:38.415Z,27.33
2022-12-15T11:16:17.391Z,23.52
2022-12-15T11:18:51.738Z,22.42
2022-12-15T11:21:23.340Z,24.45
2022-12-15T11:24:02.992Z,25.40
2022-12-15T11:26:43.752Z,25.05
2022-12-15T11:29:22.272Z,24.35
2022-12-15T11:31:51.511Z,25.67
2022-12-15T11:34:22.198Z,23.15
2022-12-15T11:37:10.957Z,23.58
2022-12-15T11:39:53.433Z,27.50
2022-12-15T11:42:37.266Z,26.35
2022-12-15T11:45:17.415Z,22.33
2022-12-15T11:47:51.143Z,22.73
2022-12-15T11:50:30.434Z,23.13
2022-12-15T11:53:19.878Z,23.50
2022-12-15T11:55:58.763Z,28.17
2022-12-15T11:59:12.207Z,25.20
2022-12-15T12:02:02.940Z,24.77
2022-12-15T12:04:42.045Z,25.25
2022-12-15T12:07:20.462Z,22.95
2022-12-15T12:10:03.115Z,25.67
2022-12-15T12:12:41.886Z,23.67
2022-12-15T12:15:26.231Z,23.63
2022-12-15T12:17:56.790Z,23.15
2022-12-15T12:20:28.325Z,24.58
2022-12-15T12:23:03.276Z,23.80
2022-12-15T12:25:34.197Z,23.25
2022-12-15T12:28:07.383Z,23.42
2022-12-15T12:30:43.378Z,23.50
2022-12-15T12:33:20.418Z,22.88
2022-12-15T12:35:52.569Z,23.95
2022-12-15T12:38:26.120Z,21.23
2022-12-15T12:41:03.823Z,21.80
2022-12-15T12:43:36.427Z,21.83
2022-12-15T12:46:10.521Z,21.80
2022-12-15T12:48:42.626Z,22.20
2022-12-15T12:51:23.350Z,20.23
2022-12-15T12:53:52.046Z,21.55
2022-12-15T12:56:35.874Z,21.48
2022-12-15T12:59:09.378Z,22.15
2022-12-15T13:01:39.209Z,23.83
2022-12-15T13:04:13.549Z,22.63
2022-12-15T13:07:07.787Z,24.13
2022-12-15T13:09:42.220Z,23.55
2022-12-15T13:12:52.830Z,24.60
2022-12-15T13:15:37.375Z,24.85
2022-12-15T13:18:09.397Z,23.27
2022-12-15T13:20:38.523Z,26.20
2022-12-15T13:23:37.495Z,23.85
2022-12-15T13:26:16.033Z,23.30
2022-12-15T13:28:51.896Z,23.33
2022-12-15T13:31:32.383Z,21.92
2022-12-15T13:34:30.785Z,21.50
2022-12-15T13:37:02.820Z,22.85
2022-12-15T13:39:57.305Z,23.58
2022-12-15T13:45:17.241Z,21.13
2022-12-15T13:47:55.614Z,23.42
2022-12-15T13:50:33.075Z,22.33
2022-12-15T13:53:20.401Z,23.42
2022-12-15T13:55:56.583Z,24.25
2022-12-15T13:58:25.820Z,24.83
2022-12-15T14:00:56.311Z,22.95
2022-12-15T14:03:26.105Z,24.42
2022-12-15T14:05:55.806Z,24.63
2022-12-15T14:08:26.412Z,25.85
2022-12-15T14:10:56.316Z,25.30
2022-12-15T14:13:26.618Z,25.48
2022-12-15T14:15:57.665Z,23.98
2022-12-15T14:18:31.833Z,24.98
2022-12-15T14:21:01.521Z,25.17
2022-12-15T14:23:32.053Z,25.50
2022-12-15T14:26:06.581Z,23.92
2022-12-15T14:28:36.369Z,25.67
2022-12-15T14:31:06.914Z,25.65
2022-12-15T14:33:39.802Z,24.60
2022-12-15T14:36:11.461Z,25.50
2022-12-15T14:38:45.363Z,24.13
2022-12-15T14:44:31.740Z,21.95
2022-12-15T14:46:37.594Z,22.13
2022-12-15T14:49:10.985Z,24.75
2022-12-15T14:52:29.221Z,24.88
2022-12-15T14:54:58.986Z,25.10
2022-12-15T14:57:30.498Z,27.08
2022-12-15T14:59:58.483Z,24.63
2022-12-15T15:02:29.041Z,25.48
2022-12-15T15:05:03.328Z,25.67
2022-12-15T15:07:34.680Z,23.90
2022-12-15T15:10:04.253Z,24.85
2022-12-15T15:12:45.304Z,26.52
2022-12-15T15:15:17.908Z,26.13
2022-12-15T15:29:39.650Z,26.50
2022-12-15T15:32:15.479Z,24.70
2022-12-15T15:34:45.277Z,27.92
2022-12-15T15:37:19.828Z,25.60
2022-12-15T15:39:50.445Z,27.13
2022-12-15T15:42:18.899Z,29.60
2022-12-15T15:44:48.417Z,50.08
2022-12-15T15:47:22.242Z,47.80
2022-12-15T15:49:51.013Z,58.75
2022-12-15T15:52:19.307Z,48.53
2022-12-15T15:54:47.680Z,43.72
2022-12-15T15:57:16.552Z,44.38
2022-12-15T15:59:45.158Z,41.53
2022-12-15T16:02:15.550Z,42.28
2022-12-15T16:04:45.714Z,39.10
2022-12-15T16:07:21.056Z,35.10
2022-12-15T16:09:49.691Z,29.60
2022-12-15T16:12:27.698Z,33.90
2022-12-15T16:14:55.918Z,29.70
2022-12-15T16:17:25.567Z,30.65
2022-12-15T16:19:53.611Z,25.20
2022-12-15T16:22:23.136Z,26.85
2022-12-15T16:24:51.289Z,26.88
2022-12-15T16:27:19.407Z,25.55
2022-12-15T16:29:47.479Z,26.55
2022-12-15T16:32:15.528Z,27.63
2022-12-15T16:34:44.731Z,28.20
2022-12-15T16:37:25.469Z,28.52
2022-12-15T16:39:53.699Z,27.30
2022-12-15T16:42:21.649Z,25.67
2022-12-15T16:44:49.594Z,25.75
2022-12-15T16:47:17.635Z,28.20
2022-12-15T16:49:46.887Z,28.02
2022-12-15T16:52:22.123Z,29.75
2022-12-15T16:54:51.053Z,28.77
2022-12-15T16:57:19.595Z,27.67
2022-12-15T16:59:47.680Z,27.50
2022-12-15T17:02:29.078Z,26.98
2022-12-15T17:05:04.500Z,29.70
2022-12-15T17:07:33.501Z,28.35
2022-12-15T17:10:02.186Z,29.30
2022-12-15T17:12:30.572Z,28.35
2022-12-15T17:14:58.652Z,29.95
2022-12-15T17:17:27.561Z,30.55
2022-12-15T17:20:28.019Z,29.70
2022-12-15T17:22:46.678Z,29.20
2022-12-15T17:25:27.181Z,28.23
2022-12-15T17:28:08.402Z,30.98
2022-12-15T17:30:36.517Z,28.00
2022-12-15T17:33:06.994Z,28.60
2022-12-15T17:35:35.202Z,29.25
2022-12-15T17:38:04.576Z,29.15
2022-12-15T17:40:32.648Z,27.88
2022-12-15T17:43:00.682Z,30.73
2022-12-15T17:45:28.763Z,28.77
2022-12-15T17:47:56.864Z,28.75
2022-12-15T17:50:25.238Z,27.85
2022-12-15T17:52:53.338Z,29.98
2022-12-15T17:55:30.373Z,31.20
2022-12-15T17:58:03.645Z,28.70
2022-12-15T18:00:33.738Z,29.10
2022-12-15T18:03:02.428Z,29.05
2022-12-15T18:05:31.645Z,28.65
2022-12-15T18:08:03.008Z,28.42
2022-12-15T18:10:35.972Z,28.85
2022-12-15T18:13:04.321Z,30.67
2022-12-15T18:15:33.341Z,30.67
2022-12-15T18:18:01.426Z,28.52
2022-12-15T18:20:29.469Z,28.38
2022-12-15T18:22:57.455Z,28.58
2022-12-15T18:25:27.355Z,27.73
2022-12-15T18:27:58.454Z,29.17
2022-12-15T18:30:27.782Z,27.42
2022-12-15T18:32:58.185Z,27.63
2022-12-15T18:35:31.394Z,29.60
2022-12-15T18:37:59.677Z,27.90
2022-12-15T18:40:30.952Z,27.98
2022-12-15T18:43:00.491Z,29.08
2022-12-15T18:45:28.856Z,27.30
2022-12-15T18:47:56.731Z,29.42
2022-12-15T18:50:26.346Z,30.20
2022-12-15T18:52:59.170Z,30.58
2022-12-15T18:55:29.988Z,29.17
2022-12-15T18:58:00.762Z,29.30
2022-12-15T19:00:32.401Z,28.17
2022-12-15T19:03:01.185Z,30.25
2022-12-15T19:05:32.519Z,29.33
2022-12-15T19:08:09.998Z,30.05
2022-12-15T19:10:41.099Z,30.13
2022-12-15T19:13:14.096Z,30.05
2022-12-15T19:15:43.798Z,29.17
2022-12-15T19:18:33.138Z,30.75
2022-12-15T19:21:29.299Z,28.48
2022-12-15T19:23:57.558Z,30.73
2022-12-15T19:26:25.829Z,29.35
2022-12-15T19:28:53.948Z,30.48
2022-12-15T19:31:23.296Z,30.15
2022-12-15T19:33:51.319Z,28.40
2022-12-15T19:36:23.041Z,29.02
2022-12-15T19:38:53.379Z,29.60
2022-12-15T19:41:21.984Z,29.70
2022-12-15T19:43:51.070Z,30.42
2022-12-15T19:46:21.445Z,28.33
2022-12-15T19:48:50.863Z,29.65
2022-12-15T19:51:21.231Z,30.08
2022-12-15T19:53:50.246Z,28.58
2022-12-15T19:56:21.528Z,28.10
2022-12-15T19:58:50.564Z,29.73
2022-12-15T20:01:21.392Z,29.50
2022-12-15T20:03:53.783Z,28.83
2022-12-15T20:06:27.036Z,31.42
2022-12-15T20:08:56.953Z,27.17
2022-12-15T20:11:27.315Z,29.52
2022-12-15T20:13:56.134Z,29.08
2022-12-15T20:16:24.929Z,30.83
2022-12-15T20:18:56.276Z,29.13
2022-12-15T20:21:31.485Z,29.13
2022-12-15T20:24:02.274Z,28.08
2022-12-15T20:26:31.770Z,26.70
2022-12-15T20:28:59.980Z,25.50
2022-12-15T20:31:29.716Z,28.80
2022-12-15T20:33:59.256Z,28.45
2022-12-15T20:36:30.123Z,27.08
2022-12-15T20:38:59.215Z,26.90
2022-12-15T20:41:29.128Z,26.17
2022-12-15T20:43:57.857Z,25.83
2022-12-15T20:46:28.094Z,25.02
2022-12-15T20:48:57.980Z,26.10
2022-12-15T20:51:27.934Z,26.80
2022-12-15T20:53:58.018Z,25.75
2022-12-15T20:56:26.354Z,26.60
2022-12-15T20:58:55.279Z,26.25
2022-12-15T21:01:27.091Z,25.35
2022-12-15T21:03:57.474Z,23.98
2022-12-15T21:06:27.936Z,25.95
2022-12-15T21:08:56.324Z,25.35
2022-12-15T21:11:26.866Z,25.38
2022-12-15T21:13:58.884Z,25.83
2022-12-15T21:16:29.248Z,25.05
2022-12-15T21:19:19.080Z,26.55
2022-12-15T21:21:48.170Z,24.67
2022-12-15T21:24:19.688Z,26.23
2022-12-15T21:26:47.864Z,25.40
2022-12-15T21:29:17.916Z,25.75
2022-12-15T21:31:46.702Z,26.38
2022-12-15T21:34:15.377Z,25.02
2022-12-15T21:36:45.850Z,26.75
2022-12-15T21:39:23.474Z,25.70
2022-12-15T21:41:51.619Z,25.27
2022-12-15T21:44:19.689Z,25.50
2022-12-15T21:46:48.575Z,25.17
2022-12-15T21:49:18.544Z,25.88
2022-12-15T21:51:51.968Z,25.02
2022-12-15T21:54:27.413Z,24.75
2022-12-15T21:56:58.586Z,25.52
2022-12-15T21:59:29.620Z,26.48
2022-12-15T22:01:57.986Z,25.77
2022-12-15T22:04:29.350Z,26.80
2022-12-15T22:06:57.380Z,26.92
2022-12-15T22:09:26.819Z,27.40
2022-12-15T22:11:56.426Z,26.60
2022-12-15T22:14:27.929Z,26.85
2022-12-15T22:16:56.278Z,24.77
2022-12-15T22:19:24.633Z,25.15
2022-12-15T22:21:52.882Z,24.67
2022-12-15T22:24:20.945Z,25.05
2022-12-15T22:26:50.290Z,25.25
2022-12-15T22:29:19.938Z,24.88
2022-12-15T22:31:47.952Z,24.48
2022-12-15T22:34:19.118Z,25.00
2022-12-15T22:36:47.094Z,25.13
2022-12-15T22:39:15.371Z,24.10
2022-12-15T22:41:45.324Z,24.50
2022-12-15T22:44:19.501Z,25.35
2022-12-15T22:46:48.269Z,26.38
2022-12-15T22:49:19.147Z,25.00
2022-12-15T22:51:47.841Z,29.20
2022-12-15T22:54:19.279Z,34.22
2022-12-15T22:56:48.120Z,27.65
2022-12-15T22:59:24.471Z,26.05
2022-12-15T23:01:52.563Z,27.33
2022-12-15T23:04:20.501Z,25.88
2022-12-15T23:06:48.682Z,25.65
2022-12-15T23:09:16.684Z,25.80
2022-12-15T23:11:44.040Z,25.55
2022-12-15T23:14:14.827Z,25.92
2022-12-15T23:16:44.539Z,28.08
2022-12-15T23:19:23.703Z,27.77
2022-12-15T23:21:52.616Z,30.67
2022-12-15T23:24:20.546Z,27.92
2022-12-15T23:26:48.565Z,27.70
2022-12-15T23:29:16.791Z,27.60
2022-12-15T23:31:46.410Z,26.73
2022-12-15T23:34:14.617Z,26.92
2022-12-15T23:36:42.590Z,28.20
2022-12-15T23:39:10.587Z,28.70
2022-12-15T23:41:38.634Z,30.35
2022-12-15T23:44:06.809Z,28.63
2022-12-15T23:46:34.846Z,28.38
2022-12-15T23:49:04.291Z,28.05
2022-12-15T23:51:32.645Z,27.77
2022-12-15T23:54:00.615Z,28.73
2022-12-15T23:56:28.631Z,26.23
2022-12-15T23:58:58.406Z,25.58
